This is the latest recevied weather packets stored in our database for station/object KF0ZH. If no packets are shown the sender has not sent any weather packets the latest 10 day(s).
| Time | Temp. | Humidity | Pressure | Rain* | Wind** | Luminosity | Snow |
|---|---|---|---|---|---|---|---|
| 1777240503 | 16.11° C | 71% | 1011.1 hPa | 0 mm | 2.68 m/s, 14° | - | - |
| 1777240207 | 16.11° C | 71% | 1011.4 hPa | 0 mm | 1.79 m/s, 37° | - | - |
| 1777239903 | 16.11° C | 71% | 1011.2 hPa | 0 mm | 1.79 m/s, 11° | - | - |
| 1777239604 | 16.11° C | 72% | 1011.4 hPa | 0 mm | 3.13 m/s, 351° | - | - |
| 1777239304 | 16.11° C | 72% | 1011.4 hPa | 0 mm | 0.89 m/s, 35° | - | - |
| 1777239004 | 16.11° C | 72% | 1011.5 hPa | 0 mm | 1.79 m/s, 118° | - | - |
| 1777238705 | 15.56° C | 73% | 1011.5 hPa | 0 mm | 0.45 m/s, 32° | - | - |
| 1777238406 | 15.56° C | 73% | 1011.6 hPa | 0 mm | 3.58 m/s, 358° | - | - |
| 1777238104 | 15.56° C | 73% | 1011.6 hPa | 0 mm | 3.13 m/s, 23° | - | - |
| 1777237804 | 15.56° C | 74% | 1011.8 hPa | 0 mm | 2.68 m/s, 57° | - | - |
| 1777237504 | 15° C | 74% | 1011.8 hPa | 0 mm | 2.24 m/s, 19° | - | - |
| 1777237207 | 15.56° C | 75% | 1011.8 hPa | 0 mm | 0 m/s | - | - |
| 1777236903 | 15° C | 74% | 1012 hPa | 0 mm | 1.79 m/s, 22° | - | - |
| 1777236609 | 15° C | 74% | 1012.1 hPa | 0 mm | 1.79 m/s, 19° | - | - |
| 1777236303 | 15° C | 75% | 1012.2 hPa | 0 mm | 2.24 m/s, 33° | - | - |
| 1777236004 | 15° C | 74% | 1012.2 hPa | 0 mm | 2.68 m/s, 60° | - | - |
| 1777235703 | 15° C | 74% | 1012.4 hPa | 0 mm | 0 m/s | - | - |
| 1777235403 | 15° C | 75% | 1012.4 hPa | 0 mm | 0 m/s | - | - |
| 1777235103 | 15° C | 75% | 1012.5 hPa | 0 mm | 3.13 m/s, 75° | - | - |
| 1777234503 | 15° C | 76% | 1012.8 hPa | 0 mm | 2.68 m/s, 102° | - | - |
| 1777233911 | 14.44° C | 75% | 1012.8 hPa | 0 mm | 3.13 m/s, 25° | - | - |
| 1777233604 | 14.44° C | 75% | 1012.9 hPa | 0 mm | 2.24 m/s, 98° | - | - |
| 1777233303 | 15° C | 74% | 1013 hPa | 0 mm | 2.68 m/s, 14° | - | - |
| 1777232703 | 15° C | 74% | 1013.1 hPa | 0 mm | 1.79 m/s, 75° | - | - |
| 1777232403 | 15° C | 74% | 1013.1 hPa | 0 mm | 3.13 m/s, 30° | - | - |
* Rain latest hour (hover to see other rain measurements)
** Current wind speed in m/s (hover to see current wind gust speed)